KLWA

South Haven Area Regional Airport

South Haven, Michigan, USA
METAR KLWA 141737Z AUTO 00000KT 1 1/2SM BR OVC002 05/04 A3017 RMK AO2 T00500042
Observed Flight Rules
Dec-14 @ 17:37 UTC (21 minutes ago) Instrument Flight Rules
Visibility Clouds Conditions
1 1/2 miles
  • Overcast at 200' AGL
  • Mist
Temperatures Readings
Current 5°C / 41°F
Dewpoint 4°C / 39°F
Humidity 93%
Altimeter 30.17" Hg
Pressure 1022 hPa
Elevation 203
METAR KLWA 141737Z AUTO 00000KT 1 1/2SM BR OVC002 05/04 A3017 RMK AO2 T00500042
Observed Flight Rules
Dec-14 @ 17:37 UTC
(21 minutes ago)
LIFR
Clouds
  • Overcast at 200' AGL
Conditions
  • Mist
Temperature Dewpoint
5°C / 41°F 4°C / 39°F
Humidity Altimeter Pressure
93% 30.17" Hg 1022 hPa